< < Back
Terminal Aerodrome Forecast


Current Version              Previous Versions:   1  2  3  4  5  6  7  8  9  

Terminal Aerodrome Forecast

755
FTUS42 KTAE 310500
TAFABY
TAF
KABY 310536Z 3106/0106 00000KT P6SM BKN250
     FM311800 28005KT P6SM SCT050 BKN250
     FM010300 04003KT P6SM BKN250=

Latest METAR

326
SAUS70 KWBC 311300 RRG
MTRABY
METAR KABY 311253Z 32003KT 10SM CLR 22/18 A3004 RMK AO2 SLP170
T02220178


USA.gov is the U.S. government's official web portal to all federal, state and local government web resources and services.